LROP/OTP METAR and TAF weather

Enter ICAO airport designator
Station Type Date Time Source
LROP METAR 2019/07/15 20:30 UTC NOAA

LROP 152030Z VRB01KT 9999 BKN045 15/15 Q1012 NOSIG


Station Type Date Time Source
LROP Decoded METAR 2019/07/15 20:30 UTC NOAA

Bucuresti Otopeni, Romania (LROP) 44-33N 026-06E 95M
Jul 15, 2019 - 04:30 PM EDT / 2019.07.15 2030 UTC
Wind: Variable at 1 MPH (1 KT):0
Visibility: greater than 7 mile(s):0
Sky conditions: mostly cloudy
Temperature: 59 F (15 C)
Dew Point: 59 F (15 C)
Relative Humidity: 100%
Pressure (altimeter): 29.88 in. Hg (1012 hPa)
ob: LROP 152030Z VRB01KT 9999 BKN045 15/15 Q1012 NOSIG
cycle: 20

Station Type Date Time Source
LROP TAF 2019/07/15 18:33 UTC NOAA

TAF LROP 151700Z 1518/1618 04006KT CAVOK PROB40
TEMPO 1518/1520 SCT040CB
TEMPO 1600/1604 3000 BR
TEMPO 1613/1617 SCT040CB

Example: see airport list